Main page
METAR-TAF:

METAR-TAF

Airports :

Olive Branch Airport

Olive Branch, Mississippi, United States

latitude: 34-58-44N, longitude: 089-47-13W, elevation: 400 ft

Current weather observation

The report was made 24 minutes ago, at 05:55 UTC
Calm wind
Temperature 77°F
Humidity 83%
Pressure 30.10 in. Hg
Visibility: 9 miles

METAR: KOLV 220555Z AUTO 00000KT 9SM 25/22 A3010 RMK A01

Time: 01:19 (06:19 UTC)


TAF: missing

Weather observations and forecasts of more than 4000 airports (METAR and TAF reports).

The available stations are represented by yellow and red dots on the map.

Hover mouse over dot to see the name of the station.

Then click to see weather observations and forecasts.

To change the map : click on the green buttons with a black cross to zoom in, on the green button with a dash to zoom out, or on the green arrows for adjacent maps.


METAR-TAF: